createdAt,value
2022-08-07T00:01:43.669Z,2.05
2022-08-07T00:04:15.511Z,2.20
2022-08-07T00:06:51.366Z,2.05
2022-08-07T00:09:21.206Z,2.10
2022-08-07T00:11:55.660Z,2.20
2022-08-07T00:14:30.983Z,1.98
2022-08-07T00:17:02.559Z,2.25
2022-08-07T00:19:34.335Z,2.10
2022-08-07T00:22:24.514Z,1.90
2022-08-07T00:25:15.719Z,2.05
2022-08-07T00:27:52.471Z,2.20
2022-08-07T00:30:27.451Z,2.30
2022-08-07T00:33:00.458Z,2.03
2022-08-07T00:35:30.652Z,2.20
2022-08-07T00:38:01.077Z,2.17
2022-08-07T00:40:39.458Z,2.10
2022-08-07T00:43:09.801Z,2.08
2022-08-07T00:45:39.101Z,2.08
2022-08-07T00:48:09.359Z,2.10
2022-08-07T00:50:50.456Z,2.08
2022-08-07T00:53:21.486Z,2.13
2022-08-07T00:56:02.753Z,2.30
2022-08-07T00:58:32.532Z,2.20
2022-08-07T01:00:59.954Z,2.05
2022-08-07T01:03:55.864Z,2.33
2022-08-07T01:06:14.612Z,2.00
2022-08-07T01:08:51.467Z,2.30
2022-08-07T01:12:27.804Z,2.08
2022-08-07T01:14:09.189Z,2.30
2022-08-07T01:16:37.137Z,2.35
2022-08-07T01:19:14.889Z,2.10
2022-08-07T01:21:53.227Z,2.15
2022-08-07T01:24:25.769Z,2.47
2022-08-07T01:26:54.517Z,2.03
2022-08-07T01:29:27.680Z,2.00
2022-08-07T01:31:59.907Z,2.28
2022-08-07T01:34:32.918Z,2.40
2022-08-07T01:37:09.729Z,2.25
2022-08-07T01:42:40.281Z,2.22
2022-08-07T01:45:23.095Z,2.17
2022-08-07T01:48:18.555Z,2.15
2022-08-07T01:50:58.906Z,2.10
2022-08-07T01:54:12.659Z,2.35
2022-08-07T01:56:25.338Z,2.55
2022-08-07T01:59:06.310Z,2.40
2022-08-07T02:01:59.480Z,2.15
2022-08-07T02:04:32.475Z,2.10
2022-08-07T02:07:04.150Z,2.40
2022-08-07T02:09:51.632Z,2.45
2022-08-07T02:12:30.868Z,2.53
2022-08-07T02:15:00.948Z,2.10
2022-08-07T02:17:36.386Z,2.38
2022-08-07T02:20:10.031Z,2.30
2022-08-07T02:22:46.623Z,2.33
2022-08-07T02:25:22.134Z,2.40
2022-08-07T02:28:12.259Z,2.70
2022-08-07T02:30:41.005Z,2.60
2022-08-07T02:33:10.567Z,2.70
2022-08-07T02:36:30.569Z,2.80
2022-08-07T02:38:36.912Z,2.45
2022-08-07T02:41:05.634Z,2.78
2022-08-07T02:43:39.462Z,2.75
2022-08-07T02:46:08.906Z,3.28
2022-08-07T02:48:38.094Z,2.78
2022-08-07T02:51:14.226Z,2.90
2022-08-07T02:53:58.026Z,2.80
2022-08-07T02:56:29.755Z,2.63
2022-08-07T02:59:02.163Z,2.72
2022-08-07T03:01:35.799Z,3.03
2022-08-07T03:04:12.909Z,2.90
2022-08-07T03:06:44.812Z,2.72
2022-08-07T03:09:42.330Z,2.88
2022-08-07T03:12:08.135Z,2.83
2022-08-07T03:14:52.832Z,2.88
2022-08-07T03:17:22.203Z,3.40
2022-08-07T03:19:54.899Z,3.30
2022-08-07T03:22:30.228Z,3.40
2022-08-07T03:25:00.156Z,3.30
2022-08-07T03:27:58.707Z,3.13
2022-08-07T03:30:18.534Z,2.90
2022-08-07T03:32:58.902Z,3.17
2022-08-07T03:35:43.858Z,3.10
2022-08-07T03:38:21.435Z,3.22
2022-08-07T03:41:00.552Z,3.05
2022-08-07T03:43:32.393Z,3.08
2022-08-07T03:46:10.482Z,3.28
2022-08-07T03:49:02.892Z,3.45
2022-08-07T03:51:47.092Z,3.20
2022-08-07T03:54:36.120Z,3.00
2022-08-07T03:57:07.621Z,3.35
2022-08-07T03:59:37.049Z,3.45
2022-08-07T04:02:14.700Z,3.08
2022-08-07T04:04:42.799Z,3.30
2022-08-07T04:07:17.453Z,3.35
2022-08-07T04:09:50.555Z,3.30
2022-08-07T04:12:26.912Z,3.35
2022-08-07T04:14:59.497Z,3.00
2022-08-07T04:17:45.676Z,3.10
2022-08-07T04:20:19.613Z,3.15
2022-08-07T04:22:53.634Z,3.38
2022-08-07T04:25:39.502Z,3.20
2022-08-07T04:28:10.407Z,3.15
2022-08-07T04:30:55.426Z,3.50
2022-08-07T04:33:28.722Z,3.30
2022-08-07T04:35:56.791Z,3.40
2022-08-07T04:38:27.927Z,3.42
2022-08-07T04:40:57.392Z,2.97
2022-08-07T04:44:12.292Z,3.30
2022-08-07T04:46:34.695Z,3.50
2022-08-07T04:49:28.732Z,2.95
2022-08-07T04:52:04.294Z,2.90
2022-08-07T04:54:58.092Z,3.15
2022-08-07T04:58:23.768Z,2.70
2022-08-07T05:01:14.725Z,2.90
2022-08-07T05:04:17.790Z,2.83
2022-08-07T05:07:09.581Z,2.60
2022-08-07T05:10:11.789Z,2.80
2022-08-07T05:12:53.085Z,2.67
2022-08-07T05:15:35.992Z,3.10
2022-08-07T05:18:09.128Z,2.28
2022-08-07T05:20:48.041Z,2.50
2022-08-07T05:23:29.858Z,2.35
2022-08-07T05:26:12.974Z,2.65
2022-08-07T05:28:48.721Z,2.60
2022-08-07T05:31:23.230Z,2.40
2022-08-07T05:34:04.766Z,2.40
2022-08-07T05:36:39.008Z,2.47
2022-08-07T05:40:06.374Z,2.38
2022-08-07T05:42:07.368Z,2.80
2022-08-07T05:44:46.447Z,2.38
2022-08-07T05:47:38.178Z,2.30
2022-08-07T05:50:10.202Z,2.50
2022-08-07T05:52:37.351Z,2.42
2022-08-07T05:55:10.967Z,2.55
2022-08-07T05:57:43.194Z,2.60
2022-08-07T06:00:16.643Z,2.65
2022-08-07T06:02:55.955Z,2.50
2022-08-07T06:05:28.822Z,2.67
2022-08-07T06:08:14.594Z,2.67
2022-08-07T06:10:52.061Z,2.70
2022-08-07T06:14:13.173Z,2.67
2022-08-07T06:16:13.420Z,2.63
2022-08-07T06:18:51.794Z,3.17
2022-08-07T06:22:15.646Z,2.80
2022-08-07T06:24:41.932Z,3.25
2022-08-07T06:27:00.194Z,2.80
2022-08-07T06:29:31.919Z,2.70
2022-08-07T06:31:58.705Z,2.53
2022-08-07T06:34:29.781Z,2.75
2022-08-07T06:36:59.338Z,2.10
2022-08-07T06:40:16.344Z,2.28
2022-08-07T06:42:34.985Z,2.08
2022-08-07T06:45:23.816Z,2.50
2022-08-07T06:48:01.436Z,1.65
2022-08-07T06:50:39.303Z,2.13
2022-08-07T06:54:11.934Z,2.38
2022-08-07T06:56:03.492Z,1.80
2022-08-07T06:58:37.432Z,1.60
2022-08-07T07:01:14.419Z,1.77
2022-08-07T07:03:49.285Z,2.10
2022-08-07T07:06:26.318Z,2.38
2022-08-07T07:08:54.862Z,1.92
2022-08-07T07:12:08.937Z,1.90
2022-08-07T07:14:11.939Z,1.73
2022-08-07T07:16:49.925Z,1.90
2022-08-07T07:19:55.071Z,1.75
2022-08-07T07:22:36.930Z,1.85
2022-08-07T07:26:30.417Z,1.60
2022-08-07T07:28:29.757Z,1.73
2022-08-07T07:31:30.446Z,1.92
2022-08-07T07:34:11.641Z,1.60
2022-08-07T07:36:47.917Z,2.08
2022-08-07T07:39:21.368Z,1.80
2022-08-07T07:42:12.871Z,1.60
2022-08-07T07:44:41.974Z,1.70
2022-08-07T07:47:23.763Z,1.80
2022-08-07T07:50:34.142Z,1.73
2022-08-07T07:52:41.761Z,1.73
2022-08-07T07:55:10.957Z,1.80
2022-08-07T07:57:43.830Z,2.10
2022-08-07T08:00:29.210Z,1.80
2022-08-07T08:03:05.674Z,1.75
2022-08-07T08:05:51.017Z,1.40
2022-08-07T08:08:35.112Z,1.38
2022-08-07T08:11:13.662Z,1.85
2022-08-07T08:13:54.255Z,1.50
2022-08-07T08:16:29.907Z,1.75
2022-08-07T08:19:00.471Z,1.70
2022-08-07T08:22:03.082Z,1.63
2022-08-07T08:25:04.866Z,1.60
2022-08-07T08:27:57.523Z,1.63
2022-08-07T08:30:34.581Z,1.50
2022-08-07T08:33:05.367Z,1.70
2022-08-07T08:35:43.040Z,2.20
2022-08-07T08:38:20.555Z,1.60
2022-08-07T08:41:07.427Z,1.67
2022-08-07T08:43:55.797Z,1.70
2022-08-07T08:46:34.231Z,1.65
2022-08-07T08:49:33.497Z,1.70
2022-08-07T08:52:22.010Z,1.40
2022-08-07T08:55:10.107Z,1.30
2022-08-07T08:58:24.703Z,1.20
2022-08-07T09:01:15.844Z,1.35
2022-08-07T09:03:58.259Z,1.50
2022-08-07T09:06:47.772Z,1.60
2022-08-07T09:09:56.820Z,1.50
2022-08-07T09:12:42.064Z,1.75
2022-08-07T09:16:23.130Z,1.63
2022-08-07T09:18:13.899Z,1.80
2022-08-07T09:20:58.362Z,1.65
2022-08-07T09:24:30.374Z,1.60
2022-08-07T09:26:32.838Z,1.80
2022-08-07T09:30:01.924Z,1.60
2022-08-07T09:32:38.171Z,1.48
2022-08-07T09:36:03.026Z,1.63
2022-08-07T09:38:23.601Z,1.88
2022-08-07T09:41:36.292Z,1.70
2022-08-07T09:47:24.873Z,1.70
2022-08-07T09:48:01.400Z,1.92
2022-08-07T09:52:15.745Z,1.90
2022-08-07T09:54:16.275Z,1.73
2022-08-07T09:57:14.143Z,1.60
2022-08-07T10:00:00.880Z,2.00
2022-08-07T10:04:05.879Z,1.50
2022-08-07T10:06:09.018Z,1.50
2022-08-07T10:09:34.202Z,1.60
2022-08-07T10:12:32.037Z,1.58
2022-08-07T10:15:05.286Z,1.40
2022-08-07T10:18:01.337Z,1.30
2022-08-07T10:21:02.980Z,1.60
2022-08-07T10:24:05.280Z,1.30
2022-08-07T10:26:33.893Z,1.40
2022-08-07T10:29:19.495Z,1.50
2022-08-07T10:32:04.034Z,1.73
2022-08-07T10:34:47.746Z,1.27
2022-08-07T10:37:26.506Z,1.70
2022-08-07T10:40:48.470Z,1.73
2022-08-07T10:43:29.811Z,2.83
2022-08-07T10:46:09.691Z,9.18
2022-08-07T10:48:48.663Z,10.70
2022-08-07T10:51:57.320Z,5.43
2022-08-07T10:54:12.243Z,1.60
2022-08-07T10:56:57.275Z,1.50
2022-08-07T10:59:47.718Z,1.88
2022-08-07T11:02:33.526Z,1.60
2022-08-07T11:05:35.843Z,1.50
2022-08-07T11:08:43.281Z,1.63
2022-08-07T11:11:24.381Z,1.65
2022-08-07T11:17:02.029Z,1.42
2022-08-07T11:20:14.101Z,1.50
2022-08-07T11:22:59.438Z,1.30
2022-08-07T11:25:47.903Z,1.73
2022-08-07T11:28:24.820Z,1.70
2022-08-07T11:30:52.297Z,1.42
2022-08-07T11:33:54.354Z,1.52
2022-08-07T11:36:30.805Z,1.60
2022-08-07T11:39:58.834Z,1.50
2022-08-07T11:42:42.561Z,1.40
2022-08-07T11:45:35.550Z,1.80
2022-08-07T11:48:29.706Z,1.60
2022-08-07T11:51:09.665Z,1.92
2022-08-07T11:54:01.109Z,1.73
2022-08-07T11:56:56.280Z,1.40
2022-08-07T12:00:12.466Z,1.60
2022-08-07T12:02:53.649Z,1.58
2022-08-07T12:05:47.663Z,1.65
2022-08-07T12:08:38.282Z,1.45
2022-08-07T12:11:22.053Z,1.48
2022-08-07T12:13:58.132Z,1.50
2022-08-07T12:16:31.091Z,1.30
2022-08-07T12:19:14.718Z,1.50
2022-08-07T12:22:38.689Z,1.70
2022-08-07T12:26:21.472Z,1.42
2022-08-07T12:28:49.773Z,1.48
2022-08-07T12:32:01.674Z,1.50
2022-08-07T12:34:34.581Z,1.50
2022-08-07T12:37:08.269Z,1.40
2022-08-07T12:39:50.825Z,1.60
2022-08-07T12:42:27.172Z,1.58
2022-08-07T12:44:58.055Z,1.45
2022-08-07T12:47:49.319Z,1.50
2022-08-07T12:50:33.786Z,1.57
2022-08-07T12:53:29.917Z,1.52
2022-08-07T12:56:19.483Z,1.30
2022-08-07T12:58:57.345Z,1.67
2022-08-07T13:01:27.947Z,1.70
2022-08-07T13:04:34.077Z,1.45
2022-08-07T13:07:06.712Z,1.98
2022-08-07T13:12:59.599Z,1.63
2022-08-07T13:16:00.320Z,1.60
2022-08-07T13:18:34.217Z,1.70
2022-08-07T13:21:50.582Z,1.60
2022-08-07T13:24:43.953Z,1.40
2022-08-07T13:28:05.701Z,1.60
2022-08-07T13:30:39.640Z,1.70
2022-08-07T13:34:30.878Z,1.40
2022-08-07T13:36:05.615Z,1.80
2022-08-07T13:38:47.504Z,1.75
2022-08-07T13:41:23.350Z,1.75
2022-08-07T13:43:57.062Z,1.92
2022-08-07T13:46:33.196Z,1.50
2022-08-07T13:49:08.907Z,1.95
2022-08-07T13:52:23.034Z,1.98
2022-08-07T13:54:41.807Z,1.60
2022-08-07T13:57:24.070Z,1.95
2022-08-07T14:00:07.066Z,1.90
2022-08-07T14:02:51.191Z,1.85
2022-08-07T14:05:23.503Z,1.55
2022-08-07T14:08:00.418Z,1.90
2022-08-07T14:10:34.744Z,1.70
2022-08-07T14:13:14.205Z,1.88
2022-08-07T14:15:45.178Z,1.60
2022-08-07T14:18:33.437Z,1.90
2022-08-07T14:22:01.420Z,1.80
2022-08-07T14:24:26.789Z,1.67
2022-08-07T14:27:01.132Z,1.90
2022-08-07T14:30:06.367Z,1.95
2022-08-07T14:32:45.702Z,1.63
2022-08-07T14:35:45.691Z,1.70
2022-08-07T14:38:26.279Z,1.90
2022-08-07T14:41:04.172Z,2.10
2022-08-07T14:43:58.341Z,1.98
2022-08-07T14:46:31.052Z,1.90
2022-08-07T14:49:17.498Z,1.60
2022-08-07T14:54:41.954Z,1.95
2022-08-07T14:57:19.337Z,1.80
2022-08-07T15:02:39.192Z,1.50
2022-08-07T15:05:20.618Z,2.00
2022-08-07T15:07:51.819Z,1.70
2022-08-07T15:10:29.952Z,1.85
2022-08-07T15:13:15.507Z,1.75
2022-08-07T15:15:52.859Z,1.88
2022-08-07T15:18:35.975Z,1.80
2022-08-07T15:21:08.323Z,1.63
2022-08-07T15:25:14.310Z,1.60
2022-08-07T15:26:50.412Z,1.60
2022-08-07T15:32:11.786Z,1.80
2022-08-07T15:38:18.234Z,2.10
2022-08-07T15:46:32.142Z,1.70
2022-08-07T15:49:11.687Z,1.67
2022-08-07T15:54:34.083Z,2.10
2022-08-07T15:57:03.094Z,1.67
2022-08-07T15:59:39.015Z,1.70
2022-08-07T16:02:15.187Z,1.58
2022-08-07T16:04:43.991Z,1.65
2022-08-07T16:08:28.569Z,2.00
2022-08-07T16:10:14.734Z,2.15
2022-08-07T16:12:41.718Z,2.35
2022-08-07T16:16:03.476Z,2.15
2022-08-07T16:18:49.390Z,2.08
2022-08-07T16:22:04.113Z,1.90
2022-08-07T16:24:52.690Z,1.90
2022-08-07T16:27:40.407Z,1.95
2022-08-07T16:30:30.580Z,1.80
2022-08-07T16:34:01.723Z,1.80
2022-08-07T16:36:22.207Z,2.00
2022-08-07T16:39:10.418Z,1.98
2022-08-07T16:42:00.111Z,1.67
2022-08-07T16:45:15.278Z,1.80
2022-08-07T16:48:09.466Z,1.85
2022-08-07T16:51:20.687Z,1.88
2022-08-07T16:54:16.710Z,1.77
2022-08-07T16:56:56.845Z,2.30
2022-08-07T16:59:51.215Z,2.20
2022-08-07T17:02:53.390Z,1.95
2022-08-07T17:06:19.004Z,1.80
2022-08-07T17:10:54.429Z,1.50
2022-08-07T17:13:41.204Z,1.42
2022-08-07T17:16:44.644Z,1.30
2022-08-07T17:20:01.690Z,1.42
2022-08-07T17:22:38.122Z,1.70
2022-08-07T17:25:47.458Z,1.92
2022-08-07T17:28:19.345Z,1.58
2022-08-07T17:31:17.059Z,1.52
2022-08-07T17:34:18.056Z,1.30
2022-08-07T17:36:57.845Z,1.40
2022-08-07T17:39:58.278Z,1.48
2022-08-07T17:42:35.946Z,1.40
2022-08-07T17:48:12.643Z,1.42
2022-08-07T17:51:21.519Z,1.40
2022-08-07T17:54:12.432Z,1.42
2022-08-07T17:56:49.932Z,1.40
2022-08-07T17:59:22.235Z,1.30
2022-08-07T18:01:57.750Z,1.48
2022-08-07T18:04:42.375Z,1.35
2022-08-07T18:07:20.747Z,1.40
2022-08-07T18:10:07.391Z,1.37
2022-08-07T18:13:01.642Z,1.40
2022-08-07T18:15:38.061Z,1.45
2022-08-07T18:18:45.093Z,1.40
2022-08-07T18:21:38.269Z,1.30
2022-08-07T18:24:37.534Z,1.40
2022-08-07T18:27:09.834Z,1.50
2022-08-07T18:30:07.189Z,1.30
2022-08-07T18:36:08.023Z,1.40
2022-08-07T18:40:05.334Z,1.23
2022-08-07T18:42:41.630Z,1.40
2022-08-07T18:45:43.179Z,1.67
2022-08-07T18:50:05.908Z,1.50
2022-08-07T18:51:04.433Z,1.45
2022-08-07T18:53:54.175Z,1.48
2022-08-07T18:57:30.564Z,1.45
2022-08-07T19:00:32.759Z,1.50
2022-08-07T19:03:11.658Z,1.63
2022-08-07T19:06:08.043Z,1.77
2022-08-07T19:08:40.859Z,1.35
2022-08-07T19:11:36.456Z,1.60
2022-08-07T19:14:26.273Z,1.40
2022-08-07T19:17:07.790Z,1.35
2022-08-07T19:20:06.602Z,1.23
2022-08-07T19:23:18.279Z,1.60
2022-08-07T19:26:22.769Z,1.40
2022-08-07T19:30:55.343Z,1.38
2022-08-07T19:31:59.986Z,1.55
2022-08-07T19:34:33.898Z,1.50
2022-08-07T19:37:10.285Z,1.45
2022-08-07T19:39:57.199Z,1.63
2022-08-07T19:42:30.779Z,1.40
2022-08-07T19:45:09.492Z,1.30
2022-08-07T19:47:41.868Z,1.50
2022-08-07T19:50:41.325Z,1.63
2022-08-07T19:52:59.404Z,1.52
2022-08-07T19:55:56.795Z,1.45
2022-08-07T19:58:18.535Z,1.80
2022-08-07T20:00:57.477Z,1.67
2022-08-07T20:03:34.677Z,1.70
2022-08-07T20:06:05.035Z,1.70
2022-08-07T20:08:35.839Z,1.55
2022-08-07T20:11:10.501Z,1.40
2022-08-07T20:13:53.080Z,1.50
2022-08-07T20:16:35.584Z,1.60
2022-08-07T20:19:10.972Z,1.45
2022-08-07T20:21:48.325Z,1.60
2022-08-07T20:24:23.530Z,1.58
2022-08-07T20:26:59.086Z,1.60
2022-08-07T20:29:48.375Z,1.83
2022-08-07T20:32:26.407Z,1.90
2022-08-07T20:35:11.579Z,2.08
2022-08-07T20:37:57.667Z,1.70
2022-08-07T20:40:34.534Z,1.85
2022-08-07T20:43:14.469Z,1.60
2022-08-07T20:46:27.398Z,1.75
2022-08-07T20:51:09.387Z,2.33
2022-08-07T20:54:03.285Z,1.85
2022-08-07T20:56:29.406Z,1.80
2022-08-07T20:59:01.381Z,1.77
2022-08-07T21:01:45.368Z,1.83
2022-08-07T21:04:22.676Z,1.80
2022-08-07T21:06:57.112Z,1.60
2022-08-07T21:09:35.485Z,1.70
2022-08-07T21:12:29.046Z,1.60
2022-08-07T21:15:02.490Z,1.95
2022-08-07T21:18:02.950Z,1.70
2022-08-07T21:20:29.811Z,1.60
2022-08-07T21:23:07.429Z,1.90
2022-08-07T21:25:50.152Z,2.10
2022-08-07T21:28:48.234Z,2.10
2022-08-07T21:32:42.043Z,2.15
2022-08-07T21:34:48.588Z,2.70
2022-08-07T21:37:24.841Z,2.50
2022-08-07T21:39:55.153Z,2.53
2022-08-07T21:43:04.438Z,1.90
2022-08-07T21:46:08.533Z,2.00
2022-08-07T21:48:43.755Z,2.30
2022-08-07T21:51:25.411Z,2.42
2022-08-07T21:54:01.231Z,2.42
2022-08-07T21:56:40.239Z,2.60
2022-08-07T22:00:04.383Z,2.70
2022-08-07T22:02:57.697Z,2.17
2022-08-07T22:05:45.862Z,2.60
2022-08-07T22:08:19.732Z,2.17
2022-08-07T22:10:51.129Z,2.83
2022-08-07T22:13:23.961Z,2.47
2022-08-07T22:16:38.482Z,2.30
2022-08-07T22:18:57.105Z,2.75
2022-08-07T22:22:04.822Z,2.53
2022-08-07T22:24:33.306Z,2.40
2022-08-07T22:27:06.279Z,2.78
2022-08-07T22:29:48.083Z,2.38
2022-08-07T22:32:26.396Z,2.58
2022-08-07T22:34:56.207Z,2.50
2022-08-07T22:38:01.688Z,1.92
2022-08-07T22:40:41.246Z,2.33
2022-08-07T22:43:15.831Z,2.90
2022-08-07T22:46:56.024Z,2.45
2022-08-07T22:49:05.654Z,2.40
2022-08-07T22:52:07.058Z,2.58
2022-08-07T22:55:17.097Z,3.00
2022-08-07T22:58:09.360Z,2.85
2022-08-07T23:00:46.057Z,2.80
2022-08-07T23:03:57.271Z,2.63
2022-08-07T23:06:51.615Z,3.13
2022-08-07T23:10:34.160Z,2.85
2022-08-07T23:13:16.944Z,2.72
2022-08-07T23:16:06.385Z,2.78
2022-08-07T23:18:34.271Z,2.70
2022-08-07T23:21:29.808Z,3.00
2022-08-07T23:24:22.490Z,2.97
2022-08-07T23:26:57.832Z,3.00
2022-08-07T23:30:38.438Z,2.97
2022-08-07T23:34:21.847Z,2.92
2022-08-07T23:36:17.120Z,3.40
2022-08-07T23:39:12.681Z,3.03
2022-08-07T23:42:21.691Z,3.00
2022-08-07T23:45:03.465Z,3.13
2022-08-07T23:48:02.887Z,2.67
2022-08-07T23:50:48.154Z,3.00
2022-08-07T23:53:51.344Z,2.97
2022-08-07T23:56:14.781Z,2.70
2022-08-07T23:59:00.207Z,2.80
